Duncanville, Texas
Current Conditions -  °F | °C
As of 6:53 AM on Friday 28 Nov 2014 (Local Time) from KRBD Reporting Station
Clear Clear  
Wind Chill: 43°   Ceiling: Unl
Heat Index: 45°   Visibility: 10mi
Dew Point: 30°   Wind: 5mph
Humidity: 56%   Direction: NA
Pressure: 30.25"   Gusts: NA
Location:  32.65°N, 96.91°W
Report Text: KRBD 281253Z VRB04KT 10SM CLR 07/M01 A3025 RMK AO2 SLP243 T00721011
Loading
Personal Weather Stations






























Interactive Weather Map New forecast layout! Learn more

10-Day Weather Forecast

Advertisements
Track Severe Weather on mobile